createdAt,value
2023-05-09T00:01:29.970Z,11.78
2023-05-09T00:03:58.386Z,11.79
2023-05-09T00:06:27.548Z,11.72
2023-05-09T00:08:54.949Z,11.59
2023-05-09T00:11:22.162Z,11.71
2023-05-09T00:13:50.665Z,11.62
2023-05-09T00:16:18.135Z,11.66
2023-05-09T00:18:45.273Z,11.56
2023-05-09T00:21:12.449Z,11.45
2023-05-09T00:23:39.461Z,11.34
2023-05-09T00:26:06.664Z,11.31
2023-05-09T00:28:34.141Z,11.42
2023-05-09T00:31:01.196Z,11.53
2023-05-09T00:33:28.259Z,11.64
2023-05-09T00:35:55.320Z,11.59
2023-05-09T00:38:22.980Z,11.53
2023-05-09T00:40:50.219Z,11.55
2023-05-09T00:43:17.694Z,11.44
2023-05-09T00:45:45.649Z,11.39
2023-05-09T00:48:12.955Z,11.46
2023-05-09T00:50:40.161Z,11.55
2023-05-09T00:53:07.549Z,11.47
2023-05-09T00:55:34.623Z,11.40
2023-05-09T00:58:02.735Z,11.30
2023-05-09T01:00:29.738Z,11.21
2023-05-09T01:02:57.119Z,11.16
2023-05-09T01:05:27.209Z,11.24
2023-05-09T01:08:03.165Z,11.16
2023-05-09T01:10:36.232Z,11.15
2023-05-09T01:13:09.860Z,11.20
2023-05-09T01:15:41.286Z,11.14
2023-05-09T01:18:21.719Z,11.05
2023-05-09T01:20:57.346Z,11.10
2023-05-09T01:23:27.345Z,11.04
2023-05-09T01:25:54.445Z,11.00
2023-05-09T01:28:33.828Z,11.05
2023-05-09T01:31:01.071Z,11.17
2023-05-09T01:33:29.604Z,11.10
2023-05-09T01:35:59.663Z,11.02
2023-05-09T01:38:29.428Z,11.11
2023-05-09T01:40:58.366Z,10.95
2023-05-09T01:43:27.515Z,11.10
2023-05-09T01:45:55.239Z,11.15
2023-05-09T01:48:26.317Z,11.25
2023-05-09T01:50:54.783Z,11.08
2023-05-09T01:53:22.910Z,11.06
2023-05-09T01:55:51.690Z,10.93
2023-05-09T01:58:20.332Z,11.02
2023-05-09T02:00:48.109Z,10.93
2023-05-09T02:03:15.264Z,10.77
2023-05-09T02:05:42.942Z,10.69
2023-05-09T02:08:10.284Z,10.63
2023-05-09T02:10:37.711Z,10.77
2023-05-09T02:13:05.745Z,10.89
2023-05-09T02:15:32.928Z,10.90
2023-05-09T02:18:00.091Z,10.96
2023-05-09T02:20:27.194Z,10.88
2023-05-09T02:22:54.236Z,10.86
2023-05-09T02:25:21.366Z,10.83
2023-05-09T02:27:48.533Z,10.90
2023-05-09T02:30:18.681Z,10.84
2023-05-09T02:32:47.648Z,10.86
2023-05-09T02:35:16.490Z,10.77
2023-05-09T02:37:44.694Z,10.82
2023-05-09T02:40:12.193Z,10.89
2023-05-09T02:42:39.308Z,10.72
2023-05-09T02:45:07.915Z,10.73
2023-05-09T02:47:36.230Z,10.57
2023-05-09T02:50:03.911Z,10.68
2023-05-09T02:52:32.280Z,10.42
2023-05-09T02:58:05.299Z,10.43
2023-05-09T03:00:39.667Z,10.60
2023-05-09T03:03:07.470Z,10.59
2023-05-09T03:05:35.041Z,10.58
2023-05-09T03:08:02.269Z,10.31
2023-05-09T03:10:29.397Z,10.29
2023-05-09T03:12:57.040Z,10.28
2023-05-09T03:15:24.168Z,10.44
2023-05-09T03:17:51.867Z,10.56
2023-05-09T03:20:19.059Z,10.57
2023-05-09T03:22:48.278Z,10.28
2023-05-09T03:25:16.331Z,10.35
2023-05-09T03:27:43.633Z,10.22
2023-05-09T03:30:14.553Z,10.17
2023-05-09T03:32:43.274Z,10.19
2023-05-09T03:35:11.124Z,10.04
2023-05-09T03:37:38.348Z,10.08
2023-05-09T03:40:07.615Z,10.15
2023-05-09T03:42:40.508Z,10.30
2023-05-09T03:45:07.960Z,10.33
2023-05-09T03:47:35.074Z,10.18
2023-05-09T03:50:02.280Z,10.14
2023-05-09T03:52:29.649Z,10.29
2023-05-09T03:54:56.669Z,9.91
2023-05-09T03:57:23.706Z,9.92
2023-05-09T03:59:53.073Z,10.03
2023-05-09T04:02:20.782Z,9.94
2023-05-09T04:04:49.887Z,10.02
2023-05-09T04:07:20.756Z,9.93
2023-05-09T04:09:47.950Z,9.99
2023-05-09T04:12:14.962Z,10.13
2023-05-09T04:14:43.228Z,10.05
2023-05-09T04:17:10.539Z,9.84
2023-05-09T04:19:37.690Z,9.95
2023-05-09T04:22:04.736Z,9.87
2023-05-09T04:24:32.101Z,9.95
2023-05-09T04:26:59.360Z,9.83
2023-05-09T04:29:27.202Z,9.67
2023-05-09T04:31:56.225Z,9.63
2023-05-09T04:34:29.656Z,9.61
2023-05-09T04:37:00.046Z,9.75
2023-05-09T04:39:27.102Z,9.75
2023-05-09T04:42:04.335Z,9.74
2023-05-09T04:44:31.906Z,9.84
2023-05-09T04:47:00.290Z,9.77
2023-05-09T04:49:28.191Z,9.71
2023-05-09T04:51:55.201Z,9.86
2023-05-09T04:54:22.225Z,11.32
2023-05-09T04:56:53.260Z,12.55
2023-05-09T04:59:24.228Z,13.13
2023-05-09T05:01:52.305Z,12.93
2023-05-09T05:04:21.945Z,12.17
2023-05-09T05:06:49.287Z,11.61
2023-05-09T05:09:16.487Z,11.03
2023-05-09T05:11:57.078Z,11.26
2023-05-09T05:14:27.174Z,11.28
2023-05-09T05:16:55.187Z,11.57
2023-05-09T05:19:22.665Z,11.66
2023-05-09T05:21:49.722Z,11.81
2023-05-09T05:24:17.118Z,11.84
2023-05-09T05:26:44.622Z,12.00
2023-05-09T05:29:12.669Z,12.27
2023-05-09T05:31:39.921Z,12.52
2023-05-09T05:34:07.003Z,12.59
2023-05-09T05:36:34.344Z,12.78
2023-05-09T05:39:01.572Z,12.72
2023-05-09T05:41:28.785Z,12.36
2023-05-09T05:43:55.972Z,12.91
2023-05-09T05:46:23.171Z,13.06
2023-05-09T05:48:50.338Z,13.09
2023-05-09T05:51:17.500Z,13.53
2023-05-09T05:53:45.211Z,13.56
2023-05-09T05:56:12.245Z,13.35
2023-05-09T05:58:39.309Z,12.80
2023-05-09T06:01:08.343Z,12.77
2023-05-09T06:03:35.615Z,13.24
2023-05-09T06:06:06.016Z,13.49
2023-05-09T06:08:33.083Z,13.33
2023-05-09T06:11:01.086Z,13.19
2023-05-09T06:13:28.244Z,14.06
2023-05-09T06:16:14.962Z,13.28
2023-05-09T06:18:48.198Z,13.51
2023-05-09T06:21:15.333Z,13.26
2023-05-09T06:23:51.094Z,13.72
2023-05-09T06:26:29.309Z,14.30
2023-05-09T06:28:56.348Z,14.02
2023-05-09T06:31:24.906Z,14.48
2023-05-09T06:33:52.974Z,14.25
2023-05-09T06:36:19.962Z,14.78
2023-05-09T06:38:47.036Z,14.97
2023-05-09T06:41:14.122Z,15.30
2023-05-09T06:43:41.121Z,15.25
2023-05-09T06:46:08.226Z,15.53
2023-05-09T06:48:35.316Z,15.63
2023-05-09T06:51:02.301Z,15.07
2023-05-09T06:53:29.291Z,14.57
2023-05-09T06:55:56.349Z,14.59
2023-05-09T06:58:23.568Z,14.78
2023-05-09T07:00:51.458Z,15.00
2023-05-09T07:03:18.493Z,15.05
2023-05-09T07:05:45.597Z,15.36
2023-05-09T07:08:12.655Z,15.22
2023-05-09T07:10:39.832Z,15.17
2023-05-09T07:13:06.954Z,15.32
2023-05-09T07:15:41.992Z,15.70
2023-05-09T07:18:09.970Z,15.91
2023-05-09T07:20:37.218Z,15.82
2023-05-09T07:23:04.532Z,16.03
2023-05-09T07:25:31.767Z,16.22
2023-05-09T07:27:58.799Z,16.32
2023-05-09T07:30:25.878Z,15.48
2023-05-09T07:32:52.982Z,16.70
2023-05-09T07:35:20.351Z,16.16
2023-05-09T07:37:47.532Z,15.49
2023-05-09T07:40:15.029Z,15.79
2023-05-09T07:42:46.199Z,16.11
2023-05-09T07:45:13.414Z,16.09
2023-05-09T07:47:40.757Z,15.91
2023-05-09T07:50:08.093Z,16.49
2023-05-09T07:52:35.191Z,16.78
2023-05-09T07:55:02.255Z,15.98
2023-05-09T07:57:29.254Z,15.46
2023-05-09T07:59:56.330Z,15.98
2023-05-09T08:02:23.402Z,15.54
2023-05-09T08:04:50.699Z,15.94
2023-05-09T08:07:17.716Z,15.30
2023-05-09T08:09:44.766Z,15.83
2023-05-09T08:12:11.803Z,16.11
2023-05-09T08:14:38.858Z,16.19
2023-05-09T08:17:05.979Z,16.02
2023-05-09T08:19:33.043Z,15.60
2023-05-09T08:22:00.707Z,15.28
2023-05-09T08:24:27.793Z,15.27
2023-05-09T08:26:54.795Z,15.43
2023-05-09T08:29:21.813Z,15.43
2023-05-09T08:31:48.968Z,15.45
2023-05-09T08:34:16.119Z,15.27
2023-05-09T08:36:45.546Z,15.66
2023-05-09T08:39:12.615Z,16.25
2023-05-09T08:41:39.736Z,16.22
2023-05-09T08:44:06.996Z,16.45
2023-05-09T08:46:36.508Z,16.82
2023-05-09T08:49:05.240Z,16.14
2023-05-09T08:51:32.767Z,16.30
2023-05-09T08:54:00.160Z,16.41
2023-05-09T08:56:27.208Z,16.86
2023-05-09T08:58:55.504Z,16.80
2023-05-09T09:01:22.709Z,16.59
2023-05-09T09:03:50.177Z,16.27
2023-05-09T09:06:17.308Z,16.24
2023-05-09T09:08:44.369Z,16.63
2023-05-09T09:11:13.162Z,17.32
2023-05-09T09:13:41.023Z,17.29
2023-05-09T09:16:11.190Z,16.80
2023-05-09T09:18:39.953Z,16.93
2023-05-09T09:21:09.856Z,17.70
2023-05-09T09:23:38.994Z,18.11
2023-05-09T09:26:06.088Z,18.11
2023-05-09T09:28:33.691Z,17.79
2023-05-09T09:31:01.306Z,17.43
2023-05-09T09:33:29.053Z,18.19
2023-05-09T09:35:56.757Z,18.36
2023-05-09T09:38:24.506Z,18.11
2023-05-09T09:40:51.612Z,17.48
2023-05-09T09:43:19.243Z,18.00
2023-05-09T09:45:50.953Z,17.53
2023-05-09T09:48:18.090Z,17.56
2023-05-09T09:50:47.217Z,17.88
2023-05-09T09:53:14.341Z,18.22
2023-05-09T09:55:49.208Z,18.11
2023-05-09T09:58:17.304Z,17.95
2023-05-09T10:00:45.848Z,17.94
2023-05-09T10:03:16.872Z,17.79
2023-05-09T10:05:44.260Z,18.41
2023-05-09T10:08:11.553Z,18.52
2023-05-09T10:10:38.632Z,18.04
2023-05-09T10:13:10.139Z,18.30
2023-05-09T10:15:52.172Z,18.52
2023-05-09T10:18:25.197Z,18.36
2023-05-09T10:20:53.163Z,18.53
2023-05-09T10:23:20.844Z,18.39
2023-05-09T10:25:49.291Z,18.40
2023-05-09T10:28:18.574Z,18.30
2023-05-09T10:30:53.904Z,18.53
2023-05-09T10:33:23.948Z,18.43
2023-05-09T10:35:51.976Z,18.59
2023-05-09T10:38:19.070Z,18.48
2023-05-09T10:40:47.348Z,18.80
2023-05-09T10:43:14.377Z,18.37
2023-05-09T10:45:41.706Z,18.62
2023-05-09T10:48:09.284Z,18.52
2023-05-09T10:50:37.612Z,18.16
2023-05-09T10:53:04.894Z,18.23
2023-05-09T10:55:50.335Z,18.90
2023-05-09T10:58:27.766Z,18.77
2023-05-09T11:00:57.740Z,18.70
2023-05-09T11:03:25.831Z,18.48
2023-05-09T11:05:57.474Z,18.74
2023-05-09T11:08:26.140Z,18.88
2023-05-09T11:10:54.315Z,19.16
2023-05-09T11:13:23.929Z,19.03
2023-05-09T11:15:53.916Z,19.19
2023-05-09T11:18:20.994Z,18.86
2023-05-09T11:20:49.164Z,18.71
2023-05-09T11:23:17.577Z,19.07
2023-05-09T11:25:48.572Z,19.24
2023-05-09T11:28:32.369Z,18.96
2023-05-09T11:31:12.776Z,18.82
2023-05-09T11:33:40.803Z,18.75
2023-05-09T11:36:20.242Z,18.80
2023-05-09T11:38:47.755Z,18.63
2023-05-09T11:41:15.467Z,19.19
2023-05-09T11:43:42.972Z,19.59
2023-05-09T11:46:10.175Z,19.50
2023-05-09T11:48:37.847Z,19.01
2023-05-09T11:51:04.894Z,19.47
2023-05-09T11:53:32.344Z,19.39
2023-05-09T11:56:02.328Z,19.53
2023-05-09T11:58:29.391Z,19.55
2023-05-09T12:00:57.449Z,19.38
2023-05-09T12:03:25.058Z,19.27
2023-05-09T12:05:53.848Z,18.97
2023-05-09T12:08:21.512Z,19.15
2023-05-09T12:10:48.691Z,19.51
2023-05-09T12:13:15.872Z,19.24
2023-05-09T12:15:45.731Z,18.65
2023-05-09T12:18:12.918Z,19.09
2023-05-09T12:20:47.768Z,18.93
2023-05-09T12:23:15.009Z,19.15
2023-05-09T12:25:55.287Z,19.23
2023-05-09T12:28:26.745Z,19.18
2023-05-09T12:30:54.347Z,19.22
2023-05-09T12:33:21.688Z,19.32
2023-05-09T12:35:49.625Z,19.68
2023-05-09T12:38:23.241Z,19.61
2023-05-09T12:41:02.140Z,19.77
2023-05-09T12:43:31.323Z,19.50
2023-05-09T12:45:58.858Z,19.58
2023-05-09T12:48:26.186Z,19.23
2023-05-09T12:50:53.217Z,19.42
2023-05-09T12:53:27.432Z,19.45
2023-05-09T12:55:55.682Z,19.37
2023-05-09T12:58:22.780Z,19.43
2023-05-09T13:00:49.894Z,19.51
2023-05-09T13:03:20.860Z,19.42
2023-05-09T13:05:55.078Z,19.01
2023-05-09T13:08:22.094Z,19.28
2023-05-09T13:10:49.273Z,19.52
2023-05-09T13:13:16.730Z,19.74
2023-05-09T13:15:44.647Z,19.50
2023-05-09T13:18:12.201Z,19.70
2023-05-09T13:20:39.251Z,19.41
2023-05-09T13:23:06.568Z,19.36
2023-05-09T13:25:33.562Z,19.23
2023-05-09T13:28:00.642Z,19.29
2023-05-09T13:30:27.739Z,19.29
2023-05-09T13:32:54.878Z,19.27
2023-05-09T13:35:21.936Z,19.39
2023-05-09T13:37:49.047Z,19.38
2023-05-09T13:40:16.346Z,19.33
2023-05-09T13:42:43.736Z,19.17
2023-05-09T13:45:11.488Z,19.38
2023-05-09T13:47:38.959Z,19.58
2023-05-09T13:50:06.691Z,19.47
2023-05-09T13:52:33.695Z,19.11
2023-05-09T13:55:00.697Z,19.33
2023-05-09T13:57:27.969Z,19.37
2023-05-09T13:59:54.986Z,19.11
2023-05-09T14:02:22.438Z,18.87
2023-05-09T14:04:49.416Z,18.86
2023-05-09T14:07:17.736Z,18.97
2023-05-09T14:09:44.864Z,18.98
2023-05-09T14:12:13.518Z,18.93
2023-05-09T14:14:42.345Z,19.07
2023-05-09T14:17:09.438Z,18.92
2023-05-09T14:19:36.648Z,19.01
2023-05-09T14:22:04.395Z,19.17
2023-05-09T14:24:33.184Z,19.20
2023-05-09T14:27:00.278Z,18.92
2023-05-09T14:29:27.704Z,19.03
2023-05-09T14:31:54.778Z,19.25
2023-05-09T14:34:21.828Z,19.09
2023-05-09T14:36:50.125Z,19.13
2023-05-09T14:39:17.272Z,19.22
2023-05-09T14:41:44.876Z,19.19
2023-05-09T14:44:12.092Z,18.87
2023-05-09T14:46:39.204Z,19.15
2023-05-09T14:49:06.265Z,19.16
2023-05-09T14:51:33.355Z,18.93
2023-05-09T14:54:02.510Z,18.66
2023-05-09T14:56:30.934Z,18.80
2023-05-09T14:58:58.293Z,18.78
2023-05-09T15:01:25.308Z,18.82
2023-05-09T15:03:52.448Z,18.63
2023-05-09T15:06:19.556Z,18.58
2023-05-09T15:08:46.608Z,18.77
2023-05-09T15:11:13.702Z,18.79
2023-05-09T15:13:40.886Z,18.61
2023-05-09T15:16:08.717Z,18.50
2023-05-09T15:18:36.095Z,18.47
2023-05-09T15:21:03.237Z,18.45
2023-05-09T15:23:30.293Z,18.44
2023-05-09T15:25:57.400Z,18.43
2023-05-09T15:28:24.466Z,18.38
2023-05-09T15:30:51.557Z,18.42
2023-05-09T15:33:18.660Z,18.36
2023-05-09T15:35:46.799Z,18.25
2023-05-09T15:38:14.390Z,18.21
2023-05-09T15:40:41.463Z,18.23
2023-05-09T15:43:08.684Z,18.24
2023-05-09T15:45:45.202Z,18.21
2023-05-09T15:48:13.176Z,18.16
2023-05-09T15:50:41.518Z,18.15
2023-05-09T15:53:08.727Z,18.12
2023-05-09T15:55:35.918Z,18.19
2023-05-09T15:58:03.245Z,18.15
2023-05-09T16:00:30.293Z,18.14
2023-05-09T16:02:58.096Z,18.12
2023-05-09T16:05:25.319Z,17.95
2023-05-09T16:07:53.671Z,17.80
2023-05-09T16:10:20.862Z,17.72
2023-05-09T16:12:47.943Z,17.75
2023-05-09T16:15:14.965Z,17.83
2023-05-09T16:17:42.060Z,17.72
2023-05-09T16:20:09.410Z,17.61
2023-05-09T16:22:36.372Z,17.56
2023-05-09T16:25:03.479Z,17.64
2023-05-09T16:27:30.612Z,17.61
2023-05-09T16:29:57.642Z,17.51
2023-05-09T16:32:24.723Z,17.42
2023-05-09T16:34:51.832Z,17.40
2023-05-09T16:37:19.093Z,17.34
2023-05-09T16:39:46.221Z,17.25
2023-05-09T16:42:13.280Z,17.28
2023-05-09T16:44:40.306Z,17.16
2023-05-09T16:47:07.393Z,17.05
2023-05-09T16:49:34.370Z,17.07
2023-05-09T16:52:01.381Z,16.95
2023-05-09T16:54:28.439Z,16.96
2023-05-09T16:56:55.416Z,16.94
2023-05-09T16:59:22.426Z,16.94
2023-05-09T17:01:49.470Z,16.90
2023-05-09T17:04:17.033Z,16.84
2023-05-09T17:06:47.181Z,16.78
2023-05-09T17:09:14.196Z,16.80
2023-05-09T17:11:41.272Z,16.78
2023-05-09T17:14:08.326Z,16.75
2023-05-09T17:16:37.370Z,16.68
2023-05-09T17:19:05.201Z,16.62
2023-05-09T17:21:32.318Z,16.59
2023-05-09T17:23:59.332Z,16.50
2023-05-09T17:26:26.320Z,16.47
2023-05-09T17:28:53.351Z,16.47
2023-05-09T17:31:20.565Z,16.40
2023-05-09T17:33:47.616Z,16.38
2023-05-09T17:36:14.605Z,16.38
2023-05-09T17:38:41.644Z,16.34
2023-05-09T17:41:08.747Z,16.29
2023-05-09T17:43:35.890Z,16.29
2023-05-09T17:46:03.956Z,16.25
2023-05-09T17:48:31.083Z,16.24
2023-05-09T17:50:58.040Z,16.21
2023-05-09T17:53:25.108Z,16.14
2023-05-09T17:55:52.165Z,16.10
2023-05-09T17:58:20.805Z,16.04
2023-05-09T18:00:47.858Z,16.06
2023-05-09T18:03:15.208Z,16.01
2023-05-09T18:05:42.278Z,15.98
2023-05-09T18:08:09.335Z,15.89
2023-05-09T18:10:36.423Z,15.91
2023-05-09T18:13:03.514Z,15.90
2023-05-09T18:15:31.076Z,15.80
2023-05-09T18:17:59.019Z,15.77
2023-05-09T18:20:26.156Z,15.79
2023-05-09T18:22:54.227Z,15.70
2023-05-09T18:25:21.489Z,15.65
2023-05-09T18:27:48.804Z,15.54
2023-05-09T18:30:16.441Z,15.49
2023-05-09T18:32:43.670Z,15.50
2023-05-09T18:35:11.021Z,15.37
2023-05-09T18:37:38.094Z,15.37
2023-05-09T18:40:05.469Z,15.25
2023-05-09T18:42:32.559Z,15.29
2023-05-09T18:45:00.971Z,15.23
2023-05-09T18:47:28.250Z,15.07
2023-05-09T18:49:55.322Z,15.02
2023-05-09T18:52:22.710Z,14.97
2023-05-09T18:54:49.846Z,14.83
2023-05-09T18:57:16.876Z,14.80
2023-05-09T18:59:44.033Z,14.77
2023-05-09T19:02:11.105Z,14.75
2023-05-09T19:04:38.315Z,14.70
2023-05-09T19:07:05.500Z,14.64
2023-05-09T19:09:32.636Z,14.64
2023-05-09T19:12:03.082Z,14.62
2023-05-09T19:14:30.172Z,14.59
2023-05-09T19:16:57.256Z,14.58
2023-05-09T19:19:24.414Z,14.60
2023-05-09T19:21:51.526Z,14.60
2023-05-09T19:24:18.581Z,14.55
2023-05-09T19:26:45.629Z,14.54
2023-05-09T19:29:12.667Z,14.54
2023-05-09T19:31:39.814Z,14.51
2023-05-09T19:34:07.505Z,14.53
2023-05-09T19:36:34.840Z,14.56
2023-05-09T19:39:01.922Z,14.54
2023-05-09T19:41:28.976Z,14.51
2023-05-09T19:43:56.134Z,14.47
2023-05-09T19:46:23.315Z,14.47
2023-05-09T19:48:50.661Z,14.44
2023-05-09T19:51:18.134Z,14.40
2023-05-09T19:53:46.778Z,14.37
2023-05-09T19:56:15.056Z,14.43
2023-05-09T19:58:49.541Z,14.36
2023-05-09T20:01:17.895Z,14.34
2023-05-09T20:03:46.709Z,14.32
2023-05-09T20:06:13.876Z,14.30
2023-05-09T20:08:41.013Z,14.24
2023-05-09T20:11:08.134Z,14.20
2023-05-09T20:13:35.376Z,14.18
2023-05-09T20:16:03.416Z,14.16
2023-05-09T20:18:33.396Z,14.22
2023-05-09T20:21:01.112Z,14.17
2023-05-09T20:23:28.609Z,14.21
2023-05-09T20:25:56.062Z,14.12
2023-05-09T20:28:23.257Z,14.13
2023-05-09T20:30:50.314Z,14.11
2023-05-09T20:33:17.445Z,14.07
2023-05-09T20:35:44.588Z,14.07
2023-05-09T20:38:11.982Z,14.00
2023-05-09T20:40:39.259Z,14.02
2023-05-09T20:43:06.372Z,14.01
2023-05-09T20:45:33.834Z,14.02
2023-05-09T20:48:01.881Z,14.05
2023-05-09T20:50:29.025Z,14.06
2023-05-09T20:52:56.020Z,14.01
2023-05-09T20:55:23.075Z,14.04
2023-05-09T20:57:50.139Z,14.02
2023-05-09T21:00:17.469Z,14.01
2023-05-09T21:02:44.836Z,14.00
2023-05-09T21:05:11.910Z,13.99
2023-05-09T21:07:38.992Z,14.02
2023-05-09T21:10:06.308Z,13.97
2023-05-09T21:12:33.334Z,13.96
2023-05-09T21:15:00.443Z,13.97
2023-05-09T21:17:27.485Z,13.97
2023-05-09T21:19:54.520Z,13.91
2023-05-09T21:22:21.534Z,13.90
2023-05-09T21:24:48.614Z,13.90
2023-05-09T21:27:15.612Z,13.92
2023-05-09T21:29:42.691Z,13.87
2023-05-09T21:32:09.902Z,13.86
2023-05-09T21:34:36.945Z,13.83
2023-05-09T21:37:03.990Z,13.87
2023-05-09T21:39:32.538Z,13.85
2023-05-09T21:42:00.605Z,13.83
2023-05-09T21:44:27.749Z,13.84
2023-05-09T21:46:55.033Z,13.84
2023-05-09T21:49:22.159Z,13.85
2023-05-09T21:51:49.221Z,13.87
2023-05-09T21:54:16.641Z,13.90
2023-05-09T21:56:43.716Z,13.89
2023-05-09T21:59:10.910Z,13.86
2023-05-09T22:01:38.012Z,13.88
2023-05-09T22:04:05.553Z,13.89
2023-05-09T22:06:35.597Z,13.88
2023-05-09T22:09:02.745Z,13.89
2023-05-09T22:11:29.984Z,13.87
2023-05-09T22:13:57.077Z,13.88
2023-05-09T22:16:24.134Z,13.88
2023-05-09T22:18:51.351Z,13.88
2023-05-09T22:21:18.444Z,13.91
2023-05-09T22:23:45.488Z,13.90
2023-05-09T22:26:12.528Z,13.90
2023-05-09T22:28:39.637Z,13.86
2023-05-09T22:31:06.960Z,13.81
2023-05-09T22:33:34.594Z,13.76
2023-05-09T22:36:01.738Z,13.80
2023-05-09T22:38:28.750Z,13.79
2023-05-09T22:40:55.806Z,13.80
2023-05-09T22:43:24.191Z,13.83
2023-05-09T22:45:52.770Z,13.80
2023-05-09T22:48:19.898Z,13.78
2023-05-09T22:50:46.937Z,13.77
2023-05-09T22:53:14.018Z,13.77
2023-05-09T22:55:41.348Z,13.75
2023-05-09T22:58:08.481Z,13.74
2023-05-09T23:00:35.645Z,13.74
2023-05-09T23:03:05.652Z,13.74
2023-05-09T23:05:32.774Z,13.69
2023-05-09T23:07:59.876Z,13.70
2023-05-09T23:10:27.007Z,13.63
2023-05-09T23:12:54.026Z,13.68
2023-05-09T23:15:21.067Z,13.68
2023-05-09T23:17:48.184Z,13.69
2023-05-09T23:20:15.944Z,13.70
2023-05-09T23:22:43.142Z,13.71
2023-05-09T23:25:10.314Z,13.69
2023-05-09T23:27:40.419Z,13.69
2023-05-09T23:30:10.859Z,13.72
2023-05-09T23:32:38.046Z,13.72
2023-05-09T23:35:05.817Z,13.67
2023-05-09T23:37:32.880Z,13.69
2023-05-09T23:39:59.877Z,13.61
2023-05-09T23:42:26.943Z,13.58
2023-05-09T23:44:53.965Z,13.51
2023-05-09T23:47:21.036Z,13.57
2023-05-09T23:49:48.193Z,13.58
2023-05-09T23:52:15.397Z,13.57
2023-05-09T23:54:42.433Z,13.51
2023-05-09T23:57:09.754Z,13.54
2023-05-09T23:59:36.816Z,13.56
